Time;durP1;ratioP1;P1;durP2;ratioP2;P2;SDS_P1;SDS_P2;PMS_P1;PMS_P2;Temp;Humidity;BMP_temperature;BMP_pressure;BME280_temperature;BME280_humidity;BME280_pressure;Samples;Min_cycle;Max_cycle;Signal;HPM_P1;HPM_P2
2022/09/18 00:01:23;;;;;;;5.90;1.87;;;10.00;37.90;;;;;;4960323;28;20478;-62
2022/09/18 00:03:51;;;;;;;6.87;1.77;;;10.00;37.70;;;;;;4953600;28;20895;-62
2022/09/18 00:06:19;;;;;;;5.70;1.80;;;10.00;37.80;;;;;;4956690;28;20548;-62
2022/09/18 00:08:49;;;;;;;4.37;1.47;;;9.90;37.90;;;;;;4960187;28;20464;-62
2022/09/18 00:11:16;;;;;;;4.70;1.70;;;9.90;37.90;;;;;;4953390;28;20537;-63
2022/09/18 00:13:44;;;;;;;5.10;1.07;;;9.90;38.00;;;;;;4956060;28;20538;-62
2022/09/18 00:16:13;;;;;;;6.00;1.73;;;9.90;38.20;;;;;;4958959;28;20488;-62
2022/09/18 00:18:40;;;;;;;6.40;1.60;;;10.00;38.00;;;;;;4957470;28;20462;-62
2022/09/18 00:21:09;;;;;;;7.03;1.67;;;10.00;38.10;;;;;;4954757;28;20470;-62
2022/09/18 00:23:37;;;;;;;5.47;1.40;;;10.00;37.90;;;;;;4959462;28;20492;-62
2022/09/18 00:26:05;;;;;;;5.83;1.37;;;10.00;38.70;;;;;;4956426;28;20471;-62
2022/09/18 00:28:33;;;;;;;4.17;1.53;;;10.00;38.10;;;;;;4962006;28;20844;-62
2022/09/18 00:31:05;;;;;;;5.37;1.40;;;10.10;38.60;;;;;;4956628;28;21095;-62
2022/09/18 00:33:32;;;;;;;3.70;1.00;;;10.10;38.10;;;;;;4959313;28;20508;-62
2022/09/18 00:36:01;;;;;;;7.23;2.00;;;10.10;37.90;;;;;;4964567;28;20549;-62
2022/09/18 00:38:29;;;;;;;5.90;1.57;;;10.10;37.90;;;;;;4958215;28;20469;-62
2022/09/18 00:40:55;;;;;;;6.07;1.33;;;10.20;38.50;;;;;;4960990;28;20488;-63
2022/09/18 00:43:24;;;;;;;3.87;1.20;;;10.10;37.80;;;;;;4960219;28;20485;-63
2022/09/18 00:45:55;;;;;;;6.90;1.40;;;10.20;37.70;;;;;;4962817;28;20836;-62
2022/09/18 00:48:27;;;;;;;7.93;1.20;;;10.20;37.80;;;;;;4968981;28;20457;-63
2022/09/18 00:50:54;;;;;;;4.67;1.70;;;10.20;37.70;;;;;;4963039;28;20556;-62
2022/09/18 00:53:21;;;;;;;7.63;1.67;;;10.30;37.70;;;;;;4958669;28;20489;-63
2022/09/18 00:55:48;;;;;;;8.57;1.57;;;10.30;37.60;;;;;;4967087;28;20469;-62
2022/09/18 00:58:14;;;;;;;5.23;1.20;;;10.30;37.40;;;;;;4959342;28;20463;-62
2022/09/18 01:00:41;;;;;;;5.50;1.50;;;10.30;37.40;;;;;;4964429;28;20473;-62
2022/09/18 01:03:08;;;;;;;7.70;1.63;;;10.30;37.10;;;;;;4964250;28;21025;-62
2022/09/18 01:05:47;;;;;;;5.50;1.27;;;10.30;37.20;;;;;;4965908;28;20461;-62
2022/09/18 01:08:27;;;;;;;5.60;1.40;;;10.30;37.10;;;;;;4962046;28;20468;-63
2022/09/18 01:11:07;;;;;;;4.97;1.33;;;10.30;37.20;;;;;;4957170;28;20489;-62
2022/09/18 01:13:41;;;;;;;5.37;1.57;;;10.30;37.30;;;;;;4957996;28;20497;-63
2022/09/18 01:16:17;;;;;;;5.00;1.27;;;10.30;37.10;;;;;;4965786;28;20497;-62
2022/09/18 01:18:51;;;;;;;3.93;1.20;;;10.30;37.10;;;;;;4967398;28;20969;-62
2022/09/18 01:21:22;;;;;;;8.03;1.30;;;10.30;37.20;;;;;;4961433;28;20466;-61
2022/09/18 01:24:27;;;;;;;5.20;1.63;;;10.30;37.30;;;;;;4962780;28;21024;-61
2022/09/18 01:26:58;;;;;;;5.07;1.40;;;10.30;37.20;;;;;;4960142;28;20508;-62
2022/09/18 01:29:35;;;;;;;5.00;1.60;;;10.30;37.10;;;;;;4959676;28;20519;-62
2022/09/18 01:32:06;;;;;;;6.23;1.70;;;10.30;37.20;;;;;;4958959;28;20967;-62
2022/09/18 01:34:39;;;;;;;5.07;1.40;;;10.30;37.10;;;;;;4961887;28;20493;-61
2022/09/18 01:37:15;;;;;;;6.23;1.90;;;10.30;37.00;;;;;;4961730;28;20462;-61
2022/09/18 01:39:46;;;;;;;4.90;1.50;;;10.30;37.00;;;;;;4956178;28;20473;-62
2022/09/18 01:42:17;;;;;;;6.17;1.43;;;10.30;36.80;;;;;;4965287;28;20518;-61
2022/09/18 01:44:47;;;;;;;4.73;1.10;;;10.40;36.70;;;;;;4960986;28;20490;-61
2022/09/18 01:47:16;;;;;;;4.13;1.20;;;10.40;36.70;;;;;;4961305;28;20469;-62
2022/09/18 01:49:45;;;;;;;4.33;1.10;;;10.30;36.90;;;;;;4966077;28;20838;-62
2022/09/18 01:52:18;;;;;;;6.80;1.80;;;10.30;37.00;;;;;;4964827;28;20482;-61
2022/09/18 01:54:50;;;;;;;7.07;1.50;;;10.40;37.00;;;;;;4963063;28;20489;-61
2022/09/18 01:57:22;;;;;;;4.60;1.10;;;10.30;36.90;;;;;;4963670;28;22781;-61
2022/09/18 01:59:57;;;;;;;5.07;1.80;;;10.30;37.20;;;;;;4962485;28;20466;-62
2022/09/18 02:02:29;;;;;;;4.00;1.10;;;10.30;37.30;;;;;;4964645;28;20473;-62
2022/09/18 02:05:01;;;;;;;8.93;1.87;;;10.30;37.30;;;;;;4960253;28;21434;-62
2022/09/18 02:07:35;;;;;;;4.87;1.37;;;10.30;37.30;;;;;;4966324;28;21195;-61
2022/09/18 02:10:02;;;;;;;9.30;2.10;;;10.40;37.40;;;;;;4962991;28;20493;-62
2022/09/18 02:12:33;;;;;;;8.60;1.60;;;10.30;37.40;;;;;;4962268;28;20496;-62
2022/09/18 02:15:05;;;;;;;12.67;1.70;;;10.30;37.50;;;;;;4960069;28;20595;-62
2022/09/18 02:17:37;;;;;;;6.10;1.53;;;10.40;37.30;;;;;;4955699;28;20972;-62
2022/09/18 02:20:09;;;;;;;5.90;1.20;;;10.40;37.40;;;;;;4959793;28;20576;-61
2022/09/18 02:22:45;;;;;;;4.33;1.10;;;10.40;37.40;;;;;;4961047;28;20957;-61
2022/09/18 02:25:15;;;;;;;3.90;1.10;;;10.40;37.40;;;;;;4960182;28;20461;-62
2022/09/18 02:27:42;;;;;;;5.20;1.23;;;10.40;37.40;;;;;;4955364;28;20711;-61
2022/09/18 02:30:12;;;;;;;4.10;1.30;;;10.30;37.30;;;;;;4958384;28;20470;-62
2022/09/18 02:32:40;;;;;;;4.50;1.30;;;10.30;37.50;;;;;;4957914;28;20525;-62
2022/09/18 02:35:09;;;;;;;7.40;1.50;;;10.30;37.30;;;;;;4956503;28;20502;-62
2022/09/18 02:37:45;;;;;;;8.60;1.33;;;10.30;37.40;;;;;;4960609;28;20476;-63
2022/09/18 02:40:32;;;;;;;7.70;1.30;;;10.30;37.40;;;;;;4956174;28;20466;-63
2022/09/18 02:43:16;;;;;;;5.03;1.23;;;10.30;37.60;;;;;;4960515;28;20827;-63
2022/09/18 02:45:52;;;;;;;5.60;1.70;;;10.30;37.70;;;;;;4959903;28;20598;-62
2022/09/18 02:48:46;;;;;;;5.13;1.40;;;10.30;37.60;;;;;;4958164;28;20473;-63
2022/09/18 02:51:21;;;;;;;5.33;1.30;;;10.30;37.70;;;;;;4961123;28;20548;-63
2022/09/18 02:53:56;;;;;;;3.67;1.10;;;10.30;37.50;;;;;;4958998;28;21033;-63
2022/09/18 02:56:29;;;;;;;9.13;1.50;;;10.30;37.40;;;;;;4959108;28;20483;-63
2022/09/18 02:59:01;;;;;;;4.70;1.00;;;10.30;37.40;;;;;;4962289;28;20461;-63
2022/09/18 03:01:32;;;;;;;4.27;1.40;;;10.30;37.50;;;;;;4957461;28;20846;-63
2022/09/18 03:04:04;;;;;;;6.10;1.27;;;10.30;37.70;;;;;;4959909;28;20484;-63
2022/09/18 03:06:31;;;;;;;5.37;1.17;;;10.30;37.70;;;;;;4956822;28;20498;-63
2022/09/18 03:08:58;;;;;;;5.73;1.17;;;10.30;37.80;;;;;;4960032;28;20465;-63
2022/09/18 03:11:25;;;;;;;4.73;1.20;;;10.30;37.70;;;;;;4960575;28;20552;-63
2022/09/18 03:13:52;;;;;;;6.40;1.20;;;10.30;37.80;;;;;;4957328;28;21236;-61
2022/09/18 03:16:19;;;;;;;4.17;1.20;;;10.30;37.60;;;;;;4956096;28;20834;-63
2022/09/18 03:18:47;;;;;;;5.07;1.37;;;10.30;37.40;;;;;;4955968;28;20783;-62
2022/09/18 03:21:14;;;;;;;6.70;1.43;;;10.30;37.40;;;;;;4961601;28;20490;-63
2022/09/18 03:23:41;;;;;;;5.37;1.30;;;10.30;37.10;;;;;;4959118;28;20477;-61
2022/09/18 03:26:07;;;;;;;5.40;1.73;;;10.30;37.00;;;;;;4959343;28;20981;-61
2022/09/18 03:28:34;;;;;;;4.30;1.30;;;10.30;37.10;;;;;;4956548;28;20855;-61
2022/09/18 03:31:01;;;;;;;5.23;1.53;;;10.30;37.00;;;;;;4958591;28;20488;-63
2022/09/18 03:33:28;;;;;;;4.77;1.20;;;10.40;36.60;;;;;;4955280;28;21214;-63
2022/09/18 03:35:56;;;;;;;9.50;1.37;;;10.40;36.60;;;;;;4957078;28;20465;-63
2022/09/18 03:38:23;;;;;;;4.87;1.07;;;10.40;36.10;;;;;;4957593;28;20466;-61
2022/09/18 03:40:50;;;;;;;8.33;1.67;;;10.40;36.10;;;;;;4960043;28;20909;-61
2022/09/18 03:43:17;;;;;;;4.87;1.10;;;10.40;36.30;;;;;;4957422;28;20485;-61
2022/09/18 03:45:43;;;;;;;6.63;0.97;;;10.40;36.10;;;;;;4957914;28;20499;-61
2022/09/18 03:48:10;;;;;;;7.90;1.13;;;10.40;36.00;;;;;;4956571;28;20458;-63
2022/09/18 03:50:37;;;;;;;11.83;1.30;;;10.40;35.80;;;;;;4956476;28;20477;-63
2022/09/18 03:53:07;;;;;;;5.57;1.33;;;10.40;35.90;;;;;;4962017;28;20682;-63
2022/09/18 03:55:34;;;;;;;5.63;1.07;;;10.40;36.00;;;;;;4956591;28;20462;-63
2022/09/18 03:58:01;;;;;;;5.70;1.10;;;10.40;36.20;;;;;;4959755;28;20470;-63
2022/09/18 04:00:28;;;;;;;6.73;1.37;;;10.40;36.30;;;;;;4957019;28;20477;-61
2022/09/18 04:02:55;;;;;;;4.93;1.20;;;10.30;36.50;;;;;;4958052;28;20521;-61
2022/09/18 04:05:22;;;;;;;13.20;2.37;;;10.30;36.50;;;;;;4955938;28;20477;-63
2022/09/18 04:07:48;;;;;;;4.57;1.33;;;10.30;36.50;;;;;;4959855;28;20970;-61
2022/09/18 04:10:17;;;;;;;5.20;1.20;;;10.40;36.60;;;;;;4959434;28;20476;-60
2022/09/18 04:12:44;;;;;;;5.40;1.70;;;10.40;36.80;;;;;;4954117;28;21048;-61
2022/09/18 04:15:11;;;;;;;5.50;1.60;;;10.40;36.80;;;;;;4959507;28;20472;-63
2022/09/18 04:17:38;;;;;;;6.63;2.03;;;10.40;36.90;;;;;;4957980;28;20473;-63
2022/09/18 04:20:06;;;;;;;4.27;1.40;;;10.40;36.90;;;;;;4955947;28;20470;-63
2022/09/18 04:22:33;;;;;;;3.80;1.17;;;10.40;36.70;;;;;;4957986;28;20544;-63
2022/09/18 04:25:00;;;;;;;5.13;1.67;;;10.40;36.70;;;;;;4955040;28;20495;-63
2022/09/18 04:27:28;;;;;;;5.10;1.63;;;10.40;36.80;;;;;;4958725;28;20857;-63
2022/09/18 04:29:54;;;;;;;7.53;1.70;;;10.40;36.60;;;;;;4955841;28;20570;-62
2022/09/18 04:32:21;;;;;;;5.47;1.40;;;10.40;36.70;;;;;;4957784;28;21018;-63
2022/09/18 04:34:48;;;;;;;4.13;1.33;;;10.40;36.60;;;;;;4955659;28;20596;-63
2022/09/18 04:37:15;;;;;;;5.60;1.70;;;10.30;36.90;;;;;;4960021;28;20461;-61
2022/09/18 04:39:42;;;;;;;8.97;1.80;;;10.40;37.00;;;;;;4958019;28;20473;-61
2022/09/18 04:42:08;;;;;;;4.57;1.43;;;10.40;36.90;;;;;;4954806;28;20465;-63
2022/09/18 04:44:36;;;;;;;5.70;2.23;;;10.40;37.00;;;;;;4959553;28;20508;-61
2022/09/18 04:47:05;;;;;;;9.33;1.63;;;10.40;37.00;;;;;;4957195;28;20461;-61
2022/09/18 04:49:31;;;;;;;4.53;1.40;;;10.40;36.90;;;;;;4958684;28;20465;-61
2022/09/18 04:51:58;;;;;;;6.13;1.30;;;10.40;37.00;;;;;;4956391;28;20466;-63
2022/09/18 04:54:25;;;;;;;6.70;1.73;;;10.40;36.90;;;;;;4956344;28;20494;-61
2022/09/18 04:56:52;;;;;;;12.50;1.80;;;10.40;36.60;;;;;;4955495;28;21013;-63
2022/09/18 04:59:19;;;;;;;8.73;1.83;;;10.40;36.80;;;;;;4957384;28;20852;-64
2022/09/18 05:01:47;;;;;;;7.50;1.67;;;10.40;36.80;;;;;;4954549;28;20501;-63
2022/09/18 05:04:15;;;;;;;6.60;1.90;;;10.40;36.60;;;;;;4956981;28;20633;-64
2022/09/18 05:06:42;;;;;;;7.20;1.60;;;10.40;36.60;;;;;;4957258;28;20870;-63
2022/09/18 05:09:09;;;;;;;6.83;1.80;;;10.40;36.60;;;;;;4957194;28;20492;-61
2022/09/18 05:11:35;;;;;;;6.77;1.37;;;10.40;36.40;;;;;;4958718;28;20876;-63
2022/09/18 05:14:02;;;;;;;6.07;1.67;;;10.40;36.50;;;;;;4959612;28;21032;-63
2022/09/18 05:16:29;;;;;;;9.20;1.73;;;10.40;36.40;;;;;;4955466;28;20471;-63
2022/09/18 05:18:57;;;;;;;5.30;1.30;;;10.40;36.00;;;;;;4960300;28;21005;-64
2022/09/18 05:21:24;;;;;;;5.80;1.80;;;10.40;36.20;;;;;;4964197;28;20465;-64
2022/09/18 05:23:51;;;;;;;4.03;1.20;;;10.40;36.10;;;;;;4957697;28;20521;-62
2022/09/18 05:26:17;;;;;;;6.10;1.30;;;10.40;36.10;;;;;;4959801;28;20474;-61
2022/09/18 05:28:44;;;;;;;5.97;1.47;;;10.40;35.80;;;;;;4962745;28;20744;-61
2022/09/18 05:31:11;;;;;;;4.50;1.40;;;10.40;36.00;;;;;;4959742;28;20477;-61
2022/09/18 05:33:40;;;;;;;5.83;1.47;;;10.50;35.90;;;;;;4955509;28;20492;-63
2022/09/18 05:36:09;;;;;;;3.97;1.33;;;10.40;35.70;;;;;;4957933;28;20470;-63
2022/09/18 05:38:36;;;;;;;5.90;1.53;;;10.50;35.90;;;;;;4960203;28;20869;-63
2022/09/18 05:41:03;;;;;;;10.63;2.00;;;10.50;35.70;;;;;;4960478;28;20591;-63
2022/09/18 05:43:30;;;;;;;4.90;1.40;;;10.50;35.50;;;;;;4963588;28;20481;-63
2022/09/18 05:45:57;;;;;;;4.50;1.30;;;10.50;35.50;;;;;;4959511;28;20470;-63
2022/09/18 05:48:24;;;;;;;6.33;1.40;;;10.50;35.50;;;;;;4957531;28;20990;-62
2022/09/18 05:50:51;;;;;;;5.40;1.30;;;10.60;35.30;;;;;;4957941;28;20484;-63
2022/09/18 05:53:21;;;;;;;3.67;1.17;;;10.60;35.20;;;;;;4958494;28;20521;-63
2022/09/18 05:55:48;;;;;;;4.00;1.37;;;10.60;35.40;;;;;;4962056;28;20469;-63
2022/09/18 05:58:16;;;;;;;4.70;1.47;;;10.60;35.50;;;;;;4961215;28;20539;-63
2022/09/18 06:00:44;;;;;;;8.23;2.17;;;10.60;35.40;;;;;;4964922;28;21052;-62
2022/09/18 06:03:13;;;;;;;4.37;1.50;;;10.60;35.30;;;;;;4961327;28;20560;-63
2022/09/18 06:05:40;;;;;;;7.00;1.97;;;10.60;35.40;;;;;;4962647;28;20477;-62
2022/09/18 06:08:08;;;;;;;5.07;1.60;;;10.70;35.40;;;;;;4959543;28;20833;-63
2022/09/18 06:10:39;;;;;;;6.37;1.67;;;10.60;35.40;;;;;;4955775;28;20569;-62
2022/09/18 06:13:08;;;;;;;5.60;1.60;;;10.70;35.60;;;;;;4959245;28;20492;-62
2022/09/18 06:15:36;;;;;;;5.13;1.23;;;10.70;35.10;;;;;;4961534;28;20470;-62
2022/09/18 06:18:03;;;;;;;6.23;2.27;;;10.70;35.20;;;;;;4955956;28;20466;-64
2022/09/18 06:20:30;;;;;;;4.70;1.53;;;10.70;35.20;;;;;;4950545;28;20464;-62
2022/09/18 06:22:59;;;;;;;4.33;1.60;;;10.80;35.30;;;;;;4961170;28;20501;-62
2022/09/18 06:25:26;;;;;;;5.53;1.80;;;10.80;35.20;;;;;;4955662;28;20460;-62
2022/09/18 06:27:57;;;;;;;6.60;1.67;;;10.90;35.00;;;;;;4954145;28;20458;-61
2022/09/18 06:30:25;;;;;;;6.67;1.30;;;10.90;35.10;;;;;;4958225;28;20757;-62
2022/09/18 06:32:52;;;;;;;6.20;1.83;;;10.90;35.10;;;;;;4961992;28;20478;-62
2022/09/18 06:35:18;;;;;;;3.70;1.07;;;11.00;35.10;;;;;;4958073;28;20485;-61
2022/09/18 06:37:46;;;;;;;4.40;1.33;;;11.00;34.70;;;;;;4958922;28;20461;-61
2022/09/18 06:40:13;;;;;;;10.63;1.63;;;11.00;34.70;;;;;;4957094;28;20988;-61
2022/09/18 06:42:39;;;;;;;7.80;2.60;;;11.00;34.80;;;;;;4957604;28;20466;-63
2022/09/18 06:45:09;;;;;;;5.53;1.67;;;11.10;34.80;;;;;;4953360;28;20537;-64
2022/09/18 06:47:36;;;;;;;5.03;2.43;;;11.20;34.40;;;;;;4957175;28;21057;-62
2022/09/18 06:50:04;;;;;;;5.10;1.53;;;11.30;34.00;;;;;;4958107;28;20978;-62
2022/09/18 06:52:32;;;;;;;6.37;2.07;;;11.30;34.00;;;;;;4956832;28;20536;-62
2022/09/18 06:54:58;;;;;;;7.30;2.10;;;11.40;33.40;;;;;;4958944;28;20485;-61
2022/09/18 06:57:25;;;;;;;6.13;2.10;;;11.40;33.50;;;;;;4952167;28;20902;-63
2022/09/18 06:59:52;;;;;;;11.20;2.10;;;11.40;33.30;;;;;;4949869;28;21056;-65
2022/09/18 07:02:20;;;;;;;4.10;1.50;;;11.40;33.40;;;;;;4954102;28;20481;-66
2022/09/18 07:04:48;;;;;;;5.47;1.83;;;11.40;33.80;;;;;;4956302;28;20509;-62
2022/09/18 07:07:15;;;;;;;6.83;1.63;;;11.40;33.50;;;;;;4950463;28;20527;-63
2022/09/18 07:09:41;;;;;;;5.37;1.50;;;11.40;33.40;;;;;;4951418;28;21184;-64
2022/09/18 07:12:08;;;;;;;6.63;1.40;;;11.40;33.50;;;;;;4956686;28;21712;-67
2022/09/18 07:14:35;;;;;;;4.37;1.13;;;11.50;33.40;;;;;;4956923;28;20481;-64
2022/09/18 07:17:02;;;;;;;6.80;2.57;;;11.60;33.20;;;;;;4958222;28;20959;-63
2022/09/18 07:19:30;;;;;;;4.63;1.50;;;11.70;33.20;;;;;;4950038;28;20552;-65
2022/09/18 07:21:57;;;;;;;7.07;1.80;;;11.70;32.80;;;;;;4954481;28;20480;-67
2022/09/18 07:24:23;;;;;;;5.23;1.43;;;11.80;32.80;;;;;;4953781;28;20474;-65
2022/09/18 07:26:50;;;;;;;6.50;1.60;;;11.80;32.50;;;;;;4953395;28;20552;-64
2022/09/18 07:29:17;;;;;;;5.90;1.33;;;11.90;32.60;;;;;;4954697;28;20458;-66
2022/09/18 07:31:44;;;;;;;7.13;1.50;;;11.90;32.40;;;;;;4952512;28;20481;-62
2022/09/18 07:34:11;;;;;;;5.30;1.60;;;11.90;31.90;;;;;;4954038;28;20587;-61
2022/09/18 07:36:39;;;;;;;5.53;1.60;;;11.90;31.90;;;;;;4954092;28;21159;-61
2022/09/18 07:39:06;;;;;;;4.97;1.90;;;11.90;32.10;;;;;;4950787;28;20457;-61
2022/09/18 07:41:33;;;;;;;5.70;1.70;;;11.90;32.20;;;;;;4950248;28;20473;-61
2022/09/18 07:44:00;;;;;;;6.03;1.10;;;11.90;32.50;;;;;;4950279;28;20497;-61
2022/09/18 07:46:27;;;;;;;6.47;2.10;;;11.90;32.40;;;;;;4955498;28;20493;-67
2022/09/18 07:48:54;;;;;;;4.83;1.30;;;11.90;32.50;;;;;;4954574;28;20465;-62
2022/09/18 07:51:20;;;;;;;6.53;1.60;;;11.90;32.40;;;;;;4958278;28;20476;-64
2022/09/18 07:53:49;;;;;;;7.00;2.30;;;12.00;32.30;;;;;;4975003;23;20449;-70
2022/09/18 07:56:16;;;;;;;8.70;2.00;;;12.00;32.60;;;;;;4999152;28;20468;-78
2022/09/18 07:58:43;;;;;;;5.53;1.90;;;12.10;32.60;;;;;;4998490;28;20472;-74
2022/09/18 08:01:10;;;;;;;10.97;5.47;;;12.20;32.20;;;;;;5002424;28;20567;-72
2022/09/18 08:03:37;;;;;;;7.43;3.07;;;12.20;32.20;;;;;;4994604;28;20451;-71
2022/09/18 08:06:05;;;;;;;6.20;2.30;;;12.40;32.20;;;;;;4999597;28;20459;-70
2022/09/18 08:08:34;;;;;;;5.73;1.40;;;12.50;31.60;;;;;;4998195;28;20475;-72
2022/09/18 08:11:03;;;;;;;4.30;1.50;;;12.70;30.80;;;;;;5000604;28;20456;-73
2022/09/18 08:13:30;;;;;;;7.13;1.77;;;12.80;30.20;;;;;;5000029;28;20537;-78
2022/09/18 08:15:57;;;;;;;4.90;1.53;;;12.80;29.90;;;;;;5000725;28;20483;-71
2022/09/18 08:18:24;;;;;;;4.53;1.40;;;12.80;29.70;;;;;;5002495;28;20460;-73
2022/09/18 08:20:51;;;;;;;4.20;1.50;;;12.80;29.90;;;;;;5001175;28;20464;-73
2022/09/18 08:23:17;;;;;;;6.80;1.70;;;12.80;29.40;;;;;;4998195;28;20994;-73
2022/09/18 08:25:46;;;;;;;10.97;8.40;;;12.80;29.40;;;;;;5001390;28;20716;-71
2022/09/18 08:28:14;;;;;;;13.00;5.63;;;12.80;29.70;;;;;;5000086;28;21124;-71
2022/09/18 08:30:41;;;;;;;7.23;1.90;;;12.90;29.70;;;;;;4999444;28;20487;-71
2022/09/18 08:33:08;;;;;;;5.47;1.73;;;13.00;29.20;;;;;;5001441;28;20464;-71
2022/09/18 08:35:36;;;;;;;6.67;1.90;;;13.00;28.70;;;;;;4998558;28;20487;-72
2022/09/18 08:38:03;;;;;;;4.90;2.17;;;13.10;29.00;;;;;;5001561;28;20467;-72
2022/09/18 08:40:46;;;;;;;4.53;1.50;;;13.10;28.60;;;;;;4997985;28;20470;-74
2022/09/18 08:43:22;;;;;;;6.00;1.33;;;13.20;28.50;;;;;;5003647;28;20471;-76
2022/09/18 08:45:57;;;;;;;5.20;1.33;;;13.30;28.30;;;;;;5008308;28;20468;-72
2022/09/18 08:48:27;;;;;;;6.10;1.10;;;13.40;28.30;;;;;;5004463;28;20518;-71
2022/09/18 08:50:58;;;;;;;5.30;1.10;;;13.50;27.70;;;;;;5002177;28;20472;-72
2022/09/18 08:53:32;;;;;;;5.60;1.50;;;13.50;27.30;;;;;;5000807;28;21100;-71
2022/09/18 08:56:01;;;;;;;4.67;1.43;;;13.60;27.40;;;;;;5005410;28;21038;-71
2022/09/18 08:58:38;;;;;;;13.30;1.67;;;13.60;27.40;;;;;;5005129;28;20460;-71
2022/09/18 09:01:09;;;;;;;6.37;1.30;;;13.60;27.00;;;;;;5004772;28;20541;-68
2022/09/18 09:03:49;;;;;;;4.37;1.60;;;13.60;27.30;;;;;;4999478;28;20472;-70
2022/09/18 09:06:41;;;;;;;4.40;1.30;;;13.60;27.50;;;;;;5001944;28;20463;-71
2022/09/18 09:09:28;;;;;;;11.17;1.73;;;13.60;27.60;;;;;;5000597;28;20460;-67
2022/09/18 09:12:02;;;;;;;4.83;1.30;;;13.60;27.40;;;;;;5004733;28;21173;-68
2022/09/18 09:14:44;;;;;;;6.13;1.73;;;13.60;27.30;;;;;;5000743;28;20496;-67
2022/09/18 09:17:17;;;;;;;6.13;1.47;;;13.50;27.60;;;;;;5004427;28;20456;-67
2022/09/18 09:19:52;;;;;;;4.30;1.27;;;13.40;27.80;;;;;;5003160;28;20464;-69
2022/09/18 09:22:20;;;;;;;6.20;1.50;;;13.40;28.00;;;;;;5002719;28;20459;-74
2022/09/18 09:24:59;;;;;;;5.40;1.50;;;13.40;28.10;;;;;;5002501;28;20486;-74
2022/09/18 09:27:31;;;;;;;6.23;1.23;;;13.50;28.10;;;;;;5000435;28;20464;-77
2022/09/18 09:30:03;;;;;;;4.83;1.20;;;13.50;27.90;;;;;;4998837;28;20467;-74
2022/09/18 09:32:36;;;;;;;6.10;1.50;;;13.60;28.00;;;;;;5000089;28;20498;-76
2022/09/18 09:35:23;;;;;;;6.10;1.90;;;13.60;27.80;;;;;;4996288;28;21015;-74
2022/09/18 09:37:51;;;;;;;3.60;1.10;;;13.60;27.30;;;;;;5007060;28;21147;-73
2022/09/18 09:40:24;;;;;;;4.90;1.30;;;13.60;27.40;;;;;;5002506;28;20483;-73
2022/09/18 09:42:55;;;;;;;4.33;1.40;;;13.70;27.40;;;;;;5006085;28;20456;-74
2022/09/18 09:45:28;;;;;;;4.10;1.10;;;13.70;27.10;;;;;;5004630;28;20471;-72
2022/09/18 09:48:04;;;;;;;3.80;1.00;;;13.80;27.20;;;;;;5003934;28;20464;-68
2022/09/18 09:50:43;;;;;;;4.23;1.17;;;13.90;26.50;;;;;;5002872;28;20460;-68
2022/09/18 09:53:11;;;;;;;5.40;0.90;;;14.00;26.60;;;;;;5006427;28;20468;-66
2022/09/18 09:55:46;;;;;;;4.57;1.10;;;14.20;25.80;;;;;;5004588;28;20490;-68
2022/09/18 09:58:22;;;;;;;4.30;0.90;;;14.40;26.40;;;;;;5003517;28;20557;-68
2022/09/18 10:01:01;;;;;;;4.23;0.97;;;14.50;25.20;;;;;;5003319;28;20484;-71
2022/09/18 10:03:41;;;;;;;6.17;0.93;;;14.90;23.30;;;;;;5000033;28;20471;-75
2022/09/18 10:06:19;;;;;;;4.90;0.90;;;14.90;22.80;;;;;;5001959;28;20483;-73
2022/09/18 10:08:50;;;;;;;4.40;1.00;;;14.80;23.30;;;;;;5003002;28;20463;-73
2022/09/18 10:11:17;;;;;;;3.90;0.90;;;14.90;23.90;;;;;;5001759;28;20491;-70
2022/09/18 10:13:49;;;;;;;4.70;0.97;;;14.90;23.20;;;;;;5001281;28;20571;-72
2022/09/18 10:16:21;;;;;;;7.83;1.00;;;14.80;22.30;;;;;;5002158;28;20486;-70
2022/09/18 10:18:49;;;;;;;3.97;0.90;;;14.70;23.40;;;;;;4998339;28;20476;-72
2022/09/18 10:21:18;;;;;;;3.97;1.57;;;14.60;23.50;;;;;;4996714;28;20455;-68
2022/09/18 10:23:50;;;;;;;7.43;1.00;;;14.60;23.70;;;;;;4998464;28;20488;-76
2022/09/18 10:26:23;;;;;;;5.30;1.10;;;14.50;24.80;;;;;;4998401;28;20452;-76
2022/09/18 10:28:49;;;;;;;4.97;1.00;;;14.50;23.60;;;;;;4999950;28;20464;-70
2022/09/18 10:31:18;;;;;;;6.13;1.33;;;14.40;23.20;;;;;;4998233;28;20475;-72
2022/09/18 10:33:46;;;;;;;3.97;0.73;;;14.30;24.30;;;;;;5001482;28;20518;-72
2022/09/18 10:36:22;;;;;;;3.70;0.80;;;14.20;23.30;;;;;;5000104;28;20479;-75
2022/09/18 10:38:49;;;;;;;3.83;0.70;;;14.20;24.00;;;;;;5002347;28;20464;-73
2022/09/18 10:41:28;;;;;;;3.17;0.80;;;14.10;23.80;;;;;;4998062;28;20467;-73
2022/09/18 10:44:18;;;;;;;3.93;0.63;;;14.10;23.70;;;;;;4998402;28;20586;-72
2022/09/18 10:46:57;;;;;;;3.90;0.70;;;14.00;24.40;;;;;;5000861;28;21105;-71
2022/09/18 10:49:27;;;;;;;3.90;0.70;;;14.10;24.50;;;;;;4997677;28;20567;-72
2022/09/18 10:52:25;;;;;;;3.40;0.80;;;14.30;24.80;;;;;;4998492;28;20464;-69
2022/09/18 10:55:13;;;;;;;5.67;0.90;;;14.40;23.60;;;;;;4997601;28;20488;-71
2022/09/18 10:57:43;;;;;;;4.73;0.93;;;14.50;23.20;;;;;;4996264;28;20464;-71
2022/09/18 11:00:35;;;;;;;5.60;1.07;;;14.50;23.50;;;;;;4994145;28;20510;-71
2022/09/18 11:03:19;;;;;;;4.00;1.07;;;14.60;24.30;;;;;;4997062;28;20463;-69
2022/09/18 11:05:52;;;;;;;5.50;1.00;;;14.80;24.10;;;;;;4997330;28;20551;-70
2022/09/18 11:08:23;;;;;;;4.30;0.70;;;15.00;23.20;;;;;;4994830;28;20497;-72
2022/09/18 11:10:54;;;;;;;5.30;1.00;;;15.30;22.50;;;;;;4997664;28;20463;-72
2022/09/18 11:13:24;;;;;;;4.37;1.20;;;15.40;21.50;;;;;;4999211;28;20479;-72
2022/09/18 11:15:53;;;;;;;4.13;1.17;;;15.40;21.20;;;;;;5002123;28;21101;-71
2022/09/18 11:18:23;;;;;;;4.27;0.90;;;15.30;20.20;;;;;;5000289;28;21124;-63
2022/09/18 11:20:52;;;;;;;4.80;1.03;;;15.30;20.90;;;;;;4999906;28;20456;-72
2022/09/18 11:23:27;;;;;;;4.53;0.80;;;15.40;21.70;;;;;;4995962;28;20464;-69
2022/09/18 11:26:11;;;;;;;7.20;2.53;;;15.70;20.70;;;;;;5001576;28;20546;-69
2022/09/18 11:28:39;;;;;;;9.80;4.40;;;16.10;19.40;;;;;;4999609;28;20464;-63
2022/09/18 11:31:10;;;;;;;4.80;1.27;;;16.50;18.80;;;;;;5003302;28;20472;-66
2022/09/18 11:33:44;;;;;;;4.00;0.90;;;16.80;17.50;;;;;;4998433;28;20456;-67
2022/09/18 11:36:14;;;;;;;4.80;0.93;;;17.20;17.30;;;;;;5003378;28;20701;-70
2022/09/18 11:38:44;;;;;;;4.37;1.20;;;17.30;16.30;;;;;;5004684;28;20463;-67
2022/09/18 11:41:12;;;;;;;6.53;1.10;;;17.10;15.70;;;;;;5006222;28;20466;-65
2022/09/18 11:43:42;;;;;;;5.00;1.33;;;17.00;16.00;;;;;;5001854;28;20464;-67
2022/09/18 11:46:22;;;;;;;5.00;1.43;;;16.80;16.60;;;;;;5005468;28;20460;-66
2022/09/18 11:48:55;;;;;;;3.27;0.70;;;16.80;16.80;;;;;;5001685;28;20460;-68
2022/09/18 11:51:27;;;;;;;4.60;1.00;;;16.70;16.90;;;;;;5004076;28;20484;-68
2022/09/18 11:54:03;;;;;;;6.23;1.00;;;16.60;16.70;;;;;;5003354;28;20487;-71
2022/09/18 11:56:35;;;;;;;4.50;0.93;;;16.60;16.70;;;;;;5002621;28;20486;-70
2022/09/18 11:59:10;;;;;;;5.83;0.90;;;16.50;16.40;;;;;;5002021;28;20467;-69
2022/09/18 12:01:41;;;;;;;4.70;1.10;;;16.40;17.10;;;;;;4998404;28;20475;-69
2022/09/18 12:04:16;;;;;;;3.80;0.80;;;16.30;17.40;;;;;;5002337;28;20518;-69
2022/09/18 12:06:51;;;;;;;6.10;1.03;;;16.30;16.90;;;;;;4997824;28;20467;-69
2022/09/18 12:09:26;;;;;;;6.27;0.90;;;16.10;16.60;;;;;;5002187;28;20466;-74
2022/09/18 12:12:00;;;;;;;4.70;0.73;;;15.90;16.20;;;;;;5003286;28;20467;-74
2022/09/18 12:14:34;;;;;;;5.03;1.10;;;15.80;17.10;;;;;;5001841;28;20661;-71
2022/09/18 12:17:04;;;;;;;5.37;1.47;;;15.80;17.50;;;;;;5001693;28;20476;-71
2022/09/18 12:19:37;;;;;;;4.60;1.20;;;15.80;17.80;;;;;;4998472;28;20478;-71
2022/09/18 12:22:13;;;;;;;5.53;0.80;;;15.90;16.90;;;;;;5001185;28;20998;-75
2022/09/18 12:24:40;;;;;;;5.70;2.57;;;16.00;17.30;;;;;;5001074;28;21004;-71
2022/09/18 12:27:20;;;;;;;4.80;1.00;;;16.10;16.60;;;;;;5003472;28;20982;-71
2022/09/18 12:30:07;;;;;;;5.00;0.80;;;16.30;16.80;;;;;;5004916;28;20491;-70
2022/09/18 12:32:58;;;;;;;8.73;1.13;;;16.40;15.90;;;;;;5006319;28;20475;-68
2022/09/18 12:35:35;;;;;;;4.37;0.87;;;16.60;14.70;;;;;;4994557;28;20514;-69
2022/09/18 12:38:14;;;;;;;6.83;0.87;;;16.60;14.30;;;;;;5003906;28;20546;-67
2022/09/18 12:41:05;;;;;;;3.60;0.90;;;16.60;15.20;;;;;;5005997;28;20464;-66
2022/09/18 12:44:04;;;;;;;8.10;1.20;;;16.70;14.60;;;;;;5001169;28;20456;-66
2022/09/18 12:46:45;;;;;;;12.83;7.00;;;16.80;13.50;;;;;;5002895;28;20456;-71
2022/09/18 12:49:28;;;;;;;9.40;5.33;;;16.80;14.40;;;;;;5000420;28;20467;-70
2022/09/18 12:52:05;;;;;;;11.43;4.80;;;16.80;13.80;;;;;;5004762;28;20456;-71
2022/09/18 12:54:58;;;;;;;12.23;3.73;;;16.80;13.30;;;;;;5000837;28;20490;-67
2022/09/18 12:57:41;;;;;;;8.83;5.23;;;16.60;12.60;;;;;;5005121;28;20487;-65
2022/09/18 13:00:11;;;;;;;7.60;4.93;;;16.70;14.00;;;;;;5011087;28;20468;-68
2022/09/18 13:02:52;;;;;;;6.90;2.80;;;16.70;14.40;;;;;;5008571;28;20471;-70
2022/09/18 13:05:26;;;;;;;7.30;4.20;;;16.70;13.60;;;;;;5001026;28;21183;-69